RYR27XV LIMJ-EGSS
Flight info
| Callsign | RYR27XV |
|---|---|
| Flight time | N/A |
| Altitude | 36000 |
| Route | LAGEN DCT NEDED DCT TOP DCT AOSTA DCT GOTED DCT SOSUN DCT SUBIP UM733 BANVA |
| Aircraft | A320/M-SDE3FGHIRWY/LB1 |
Departure
| Time | 2026-04-25 17:20 |
|---|---|
| Airport | Genoa Cristoforo Colombo Airport (LIMJ) |
Arrival
| Time | N/A |
|---|---|
| Airport | London Stansted Airport (EGSS) |
| Time | Latitude | Longitude | Altitude | Speed | Heading |
|---|---|---|---|---|---|
| 2026-04-25 17:04 | 44.41488 | 8.84934 | 18 ft | 0 kts | 104° |
| 2026-04-25 17:14 | 44.41489 | 8.84924 | 18 ft | 2 kts | 105° |
| 2026-04-25 17:14 | 44.41495 | 8.84902 | 20 ft | 2 kts | 113° |
| 2026-04-25 17:14 | 44.41502 | 8.84881 | 20 ft | 2 kts | 124° |
| 2026-04-25 17:14 | 44.41512 | 8.84862 | 20 ft | 2 kts | 138° |
| 2026-04-25 17:15 | 44.41520 | 8.84852 | 20 ft | 2 kts | 153° |
| 2026-04-25 17:15 | 44.41541 | 8.84844 | 20 ft | 2 kts | 191° |
| 2026-04-25 17:15 | 44.41552 | 8.84848 | 21 ft | 2 kts | 208° |
| 2026-04-25 17:15 | 44.41562 | 8.84857 | 20 ft | 0 kts | 231° |
| 2026-04-25 17:16 | 44.41560 | 8.84853 | 20 ft | 2 kts | 231° |
| 2026-04-25 17:16 | 44.41543 | 8.84824 | 21 ft | 6 kts | 232° |
| 2026-04-25 17:17 | 44.41499 | 8.84744 | 18 ft | 18 kts | 232° |
| 2026-04-25 17:17 | 44.41399 | 8.84561 | 18 ft | 26 kts | 232° |
| 2026-04-25 17:17 | 44.41316 | 8.84374 | 19 ft | 17 kts | 274° |
| 2026-04-25 17:17 | 44.41355 | 8.84157 | 16 ft | 28 kts | 284° |
| 2026-04-25 17:18 | 44.41416 | 8.83846 | 20 ft | 42 kts | 285° |
| 2026-04-25 17:18 | 44.41497 | 8.83433 | 22 ft | 44 kts | 283° |
| 2026-04-25 17:18 | 44.41573 | 8.83045 | 23 ft | 34 kts | 285° |
| 2026-04-25 17:18 | 44.41639 | 8.82713 | 18 ft | 37 kts | 287° |
| 2026-04-25 17:19 | 44.41649 | 8.82522 | 18 ft | 13 kts | 231° |
| 2026-04-25 17:19 | 44.41548 | 8.82476 | 15 ft | 13 kts | 193° |
| 2026-04-25 17:19 | 44.41523 | 8.82515 | 16 ft | 7 kts | 105° |
| 2026-04-25 17:19 | 44.41470 | 8.82782 | 22 ft | 61 kts | 105° |
| 2026-04-25 17:20 | 44.41302 | 8.83637 | 20 ft | 119 kts | 105° |
| 2026-04-25 17:20 | 44.41041 | 8.84968 | 33 ft | 161 kts | 106° |
| 2026-04-25 17:20 | 44.40745 | 8.86407 | 750 ft | 147 kts | 108° |
| 2026-04-25 17:20 | 44.40465 | 8.87784 | 1330 ft | 149 kts | 108° |
| 2026-04-25 17:21 | 44.40187 | 8.89162 | 1931 ft | 142 kts | 109° |
| 2026-04-25 17:21 | 44.39806 | 8.90457 | 2260 ft | 152 kts | 122° |
| 2026-04-25 17:21 | 44.39151 | 8.91723 | 2351 ft | 180 kts | 135° |
| 2026-04-25 17:21 | 44.38107 | 8.92892 | 2566 ft | 204 kts | 150° |
| 2026-04-25 17:22 | 44.36713 | 8.93667 | 2938 ft | 228 kts | 168° |
| 2026-04-25 17:22 | 44.35629 | 8.93820 | 3201 ft | 244 kts | 183° |
| 2026-04-25 17:22 | 44.33519 | 8.92682 | 4102 ft | 258 kts | 221° |
| 2026-04-25 17:22 | 44.32507 | 8.90623 | 4921 ft | 265 kts | 249° |
| 2026-04-25 17:23 | 44.32200 | 8.88083 | 5766 ft | 270 kts | 272° |
| 2026-04-25 17:23 | 44.32675 | 8.85497 | 6629 ft | 275 kts | 297° |
| 2026-04-25 17:23 | 44.33881 | 8.83441 | 7442 ft | 279 kts | 321° |
| 2026-04-25 17:23 | 44.35471 | 8.81852 | 8302 ft | 281 kts | 324° |
| 2026-04-25 17:24 | 44.37064 | 8.80290 | 9143 ft | 282 kts | 324° |
| 2026-04-25 17:24 | 44.38675 | 8.78706 | 9993 ft | 284 kts | 324° |
| 2026-04-25 17:24 | 44.40301 | 8.77104 | 10466 ft | 298 kts | 324° |
| 2026-04-25 17:24 | 44.42061 | 8.75365 | 10760 ft | 316 kts | 324° |
| 2026-04-25 17:25 | 44.43885 | 8.73557 | 11372 ft | 322 kts | 323° |
| 2026-04-25 17:25 | 44.45725 | 8.71731 | 12084 ft | 325 kts | 323° |
| 2026-04-25 17:25 | 44.47580 | 8.69885 | 12803 ft | 328 kts | 323° |
| 2026-04-25 17:25 | 44.49452 | 8.68019 | 13503 ft | 331 kts | 322° |
| 2026-04-25 17:26 | 44.51312 | 8.66162 | 14134 ft | 333 kts | 322° |
| 2026-04-25 17:26 | 44.53211 | 8.64269 | 14747 ft | 336 kts | 323° |
| 2026-04-25 17:26 | 44.55133 | 8.62353 | 15366 ft | 339 kts | 323° |
| 2026-04-25 17:26 | 44.57078 | 8.60411 | 15954 ft | 342 kts | 323° |
| 2026-04-25 17:27 | 44.59007 | 8.58485 | 16542 ft | 345 kts | 323° |
| 2026-04-25 17:27 | 44.60971 | 8.56523 | 17143 ft | 347 kts | 323° |
| 2026-04-25 17:27 | 44.62920 | 8.54575 | 17756 ft | 350 kts | 323° |
| 2026-04-25 17:27 | 44.64245 | 8.53247 | 18145 ft | 352 kts | 323° |
| 2026-04-25 17:28 | 44.66937 | 8.50536 | 18874 ft | 356 kts | 324° |
| 2026-04-25 17:28 | 44.68928 | 8.48529 | 19405 ft | 358 kts | 324° |
| 2026-04-25 17:28 | 44.70964 | 8.46481 | 19951 ft | 361 kts | 324° |
| 2026-04-25 17:28 | 44.73028 | 8.44407 | 20489 ft | 364 kts | 325° |
| 2026-04-25 17:29 | 44.75074 | 8.42353 | 21014 ft | 366 kts | 325° |
| 2026-04-25 17:29 | 44.77171 | 8.40245 | 21549 ft | 369 kts | 325° |
| 2026-04-25 17:29 | 44.79267 | 8.38133 | 22054 ft | 372 kts | 325° |
| 2026-04-25 17:29 | 44.81393 | 8.35988 | 22583 ft | 375 kts | 325° |
| 2026-04-25 17:30 | 44.83501 | 8.33861 | 23067 ft | 378 kts | 326° |
| 2026-04-25 17:30 | 44.85659 | 8.31684 | 23568 ft | 381 kts | 326° |
| 2026-04-25 17:30 | 44.87796 | 8.29523 | 23984 ft | 384 kts | 325° |
| 2026-04-25 17:30 | 44.89980 | 8.27303 | 24415 ft | 387 kts | 325° |
| 2026-04-25 17:31 | 44.92176 | 8.25067 | 24821 ft | 389 kts | 325° |
| 2026-04-25 17:31 | 44.94358 | 8.22847 | 25208 ft | 391 kts | 325° |
| 2026-04-25 17:31 | 44.96574 | 8.20598 | 25631 ft | 393 kts | 324° |
| 2026-04-25 17:31 | 44.98825 | 8.18314 | 26037 ft | 396 kts | 324° |
| 2026-04-25 17:32 | 45.01040 | 8.16057 | 26430 ft | 398 kts | 324° |
| 2026-04-25 17:32 | 45.03300 | 8.13753 | 26815 ft | 400 kts | 324° |
| 2026-04-25 17:32 | 45.05575 | 8.11436 | 27192 ft | 402 kts | 324° |
| 2026-04-25 17:32 | 45.07823 | 8.09147 | 27555 ft | 404 kts | 324° |
| 2026-04-25 17:33 | 45.10126 | 8.06793 | 27922 ft | 407 kts | 324° |
| 2026-04-25 17:33 | 45.12432 | 8.04430 | 28282 ft | 409 kts | 324° |
| 2026-04-25 17:33 | 45.14722 | 8.02084 | 28647 ft | 411 kts | 324° |
| 2026-04-25 17:33 | 45.17046 | 7.99704 | 29014 ft | 413 kts | 323° |
| 2026-04-25 17:34 | 45.19388 | 7.97300 | 29369 ft | 415 kts | 323° |
| 2026-04-25 17:34 | 45.21738 | 7.94884 | 29718 ft | 418 kts | 323° |
| 2026-04-25 17:34 | 45.24072 | 7.92485 | 30070 ft | 420 kts | 323° |
| 2026-04-25 17:34 | 45.26455 | 7.90034 | 30359 ft | 422 kts | 323° |
| 2026-04-25 17:35 | 45.28814 | 7.87606 | 30654 ft | 424 kts | 323° |
| 2026-04-25 17:35 | 45.31220 | 7.85128 | 30955 ft | 425 kts | 323° |
| 2026-04-25 17:35 | 45.33620 | 7.82649 | 31314 ft | 425 kts | 323° |
| 2026-04-25 17:35 | 45.36017 | 7.80170 | 31754 ft | 424 kts | 323° |
| 2026-04-25 17:36 | 45.38367 | 7.77736 | 32185 ft | 422 kts | 323° |
| 2026-04-25 17:36 | 45.40735 | 7.75278 | 32616 ft | 421 kts | 323° |
| 2026-04-25 17:36 | 45.43108 | 7.72817 | 33028 ft | 420 kts | 322° |
| 2026-04-25 17:36 | 45.45478 | 7.70358 | 33433 ft | 419 kts | 322° |
| 2026-04-25 17:37 | 45.47844 | 7.67898 | 33814 ft | 418 kts | 322° |
| 2026-04-25 17:37 | 45.50157 | 7.65489 | 34161 ft | 417 kts | 322° |
| 2026-04-25 17:37 | 45.52509 | 7.63037 | 34482 ft | 417 kts | 322° |
| 2026-04-25 17:37 | 45.54857 | 7.60589 | 34792 ft | 416 kts | 322° |
| 2026-04-25 17:38 | 45.57169 | 7.58178 | 35110 ft | 415 kts | 322° |
| 2026-04-25 17:38 | 45.58736 | 7.56542 | 35302 ft | 415 kts | 322° |
| 2026-04-25 17:38 | 45.61835 | 7.53299 | 35676 ft | 415 kts | 322° |
| 2026-04-25 17:38 | 45.64141 | 7.50885 | 35942 ft | 415 kts | 322° |
| 2026-04-25 17:39 | 45.68864 | 7.45941 | 36037 ft | 424 kts | 322° |
| 2026-04-25 17:39 | 45.73669 | 7.40887 | 36029 ft | 436 kts | 322° |
| 2026-04-25 17:40 | 45.78592 | 7.35688 | 36032 ft | 442 kts | 322° |
| 2026-04-25 17:40 | 45.83456 | 7.30277 | 36035 ft | 442 kts | 320° |
| 2026-04-25 17:41 | 45.88192 | 7.24670 | 36057 ft | 442 kts | 319° |
| 2026-04-25 17:41 | 45.92923 | 7.19010 | 36074 ft | 442 kts | 319° |
| 2026-04-25 17:42 | 45.97675 | 7.13373 | 36103 ft | 442 kts | 319° |
| 2026-04-25 17:42 | 46.02434 | 7.07750 | 36101 ft | 443 kts | 319° |
| 2026-04-25 17:43 | 46.07178 | 7.02136 | 36102 ft | 443 kts | 319° |
| 2026-04-25 17:43 | 46.11962 | 6.96455 | 36104 ft | 443 kts | 319° |
| 2026-04-25 17:44 | 46.16701 | 6.90813 | 36114 ft | 444 kts | 319° |
| 2026-04-25 17:44 | 46.21464 | 6.85134 | 36117 ft | 444 kts | 319° |
| 2026-04-25 17:45 | 46.24626 | 6.81362 | 36118 ft | 445 kts | 319° |
| 2026-04-25 17:45 | 46.30983 | 6.73755 | 36114 ft | 445 kts | 319° |
| 2026-04-25 17:46 | 46.35738 | 6.68029 | 36112 ft | 445 kts | 319° |
| 2026-04-25 17:46 | 46.40498 | 6.62289 | 36108 ft | 445 kts | 319° |
| 2026-04-25 17:47 | 46.45247 | 6.56544 | 36101 ft | 444 kts | 319° |
| 2026-04-25 17:47 | 46.49998 | 6.50804 | 36106 ft | 444 kts | 319° |
| 2026-04-25 17:48 | 46.57101 | 6.42188 | 36111 ft | 444 kts | 319° |
| 2026-04-25 17:49 | 46.61872 | 6.36385 | 36117 ft | 444 kts | 319° |
| 2026-04-25 17:49 | 46.66584 | 6.30652 | 36125 ft | 444 kts | 319° |
| 2026-04-25 17:50 | 46.71307 | 6.24866 | 36130 ft | 444 kts | 319° |
| 2026-04-25 17:50 | 46.76029 | 6.19060 | 36128 ft | 444 kts | 319° |
| 2026-04-25 17:51 | 46.80760 | 6.13246 | 36131 ft | 444 kts | 319° |
| 2026-04-25 17:51 | 46.85472 | 6.07439 | 36130 ft | 444 kts | 318° |
| 2026-04-25 17:52 | 46.90207 | 6.01600 | 36127 ft | 444 kts | 318° |
| 2026-04-25 17:52 | 46.94924 | 5.95766 | 36124 ft | 444 kts | 318° |
| 2026-04-25 17:53 | 46.99604 | 5.89965 | 36126 ft | 444 kts | 318° |
| 2026-04-25 17:53 | 47.04327 | 5.84092 | 36114 ft | 444 kts | 318° |
| 2026-04-25 17:54 | 47.09039 | 5.78220 | 36116 ft | 444 kts | 318° |
| 2026-04-25 17:54 | 47.13744 | 5.72333 | 36116 ft | 445 kts | 318° |
| 2026-04-25 17:55 | 47.18454 | 5.66434 | 36124 ft | 445 kts | 318° |